createdAt,value
2018-06-02T00:01:06.034Z,91.87
2018-06-02T00:03:35.206Z,93.83
2018-06-02T00:06:04.388Z,90.40
2018-06-02T00:08:33.568Z,91.70
2018-06-02T00:11:02.737Z,90.00
2018-06-02T00:13:31.904Z,90.70
2018-06-02T00:16:01.143Z,90.70
2018-06-02T00:18:30.268Z,100.10
2018-06-02T00:20:59.433Z,95.17
2018-06-02T00:23:28.603Z,88.20
2018-06-02T00:25:57.728Z,91.53
2018-06-02T00:28:26.840Z,92.57
2018-06-02T00:30:56.028Z,88.23
2018-06-02T00:33:25.159Z,86.93
2018-06-02T00:35:54.346Z,84.20
2018-06-02T00:38:23.552Z,90.23
2018-06-02T00:40:52.700Z,85.87
2018-06-02T00:43:21.884Z,90.03
2018-06-02T00:45:51.037Z,97.93
2018-06-02T00:48:20.152Z,87.70
2018-06-02T00:50:49.326Z,88.30
2018-06-02T00:53:18.494Z,90.87
2018-06-02T00:55:47.652Z,93.93
2018-06-02T00:58:16.806Z,95.50
2018-06-02T01:00:45.953Z,90.97
2018-06-02T01:03:15.562Z,91.60
2018-06-02T01:05:44.703Z,86.67
2018-06-02T01:08:13.830Z,132.20
2018-06-02T01:10:42.955Z,96.73
2018-06-02T01:13:12.143Z,90.40
2018-06-02T01:15:41.284Z,92.03
2018-06-02T01:18:10.454Z,98.63
2018-06-02T01:20:39.606Z,95.53
2018-06-02T01:23:08.757Z,97.00
2018-06-02T01:25:37.896Z,388.80
2018-06-02T01:28:07.080Z,354.13
2018-06-02T01:30:36.217Z,315.17
2018-06-02T01:33:05.348Z,341.83
2018-06-02T01:35:34.496Z,181.07
2018-06-02T01:38:03.612Z,220.90
2018-06-02T01:40:32.812Z,243.80
2018-06-02T01:43:01.962Z,334.17
2018-06-02T01:45:31.103Z,432.07
2018-06-02T01:48:00.262Z,220.40
2018-06-02T01:50:29.783Z,519.97
2018-06-02T01:52:58.952Z,511.20
2018-06-02T01:55:28.092Z,306.73
2018-06-02T01:57:57.285Z,244.97
2018-06-02T02:00:26.435Z,291.77
2018-06-02T02:02:55.572Z,324.93
2018-06-02T02:05:25.356Z,238.93
2018-06-02T02:07:54.538Z,410.87
2018-06-02T02:10:23.679Z,421.67
2018-06-02T02:12:52.838Z,232.90
2018-06-02T02:15:21.992Z,188.83
2018-06-02T02:17:51.114Z,289.90
2018-06-02T02:20:20.264Z,285.30
2018-06-02T02:22:49.404Z,205.87
2018-06-02T02:25:18.524Z,374.40
2018-06-02T02:27:47.637Z,204.03
2018-06-02T02:30:16.799Z,368.30
2018-06-02T02:32:45.966Z,291.20
2018-06-02T02:35:15.120Z,382.40
2018-06-02T02:37:44.259Z,310.17
2018-06-02T02:40:13.394Z,335.10
2018-06-02T02:42:42.568Z,361.70
2018-06-02T02:45:11.694Z,512.40
2018-06-02T02:47:40.845Z,388.90
2018-06-02T02:50:10.005Z,331.37
2018-06-02T02:52:39.149Z,257.40
2018-06-02T02:55:08.260Z,296.50
2018-06-02T02:57:37.465Z,334.03
2018-06-02T03:00:06.649Z,214.70
2018-06-02T03:02:35.777Z,198.73
2018-06-02T03:05:04.963Z,125.17
2018-06-02T03:07:34.256Z,122.53
2018-06-02T03:10:03.373Z,238.97
2018-06-02T03:12:32.536Z,228.43
2018-06-02T03:15:01.658Z,197.23
2018-06-02T03:17:30.819Z,153.33
2018-06-02T03:20:00.031Z,330.27
2018-06-02T03:22:29.108Z,207.60
2018-06-02T03:24:58.227Z,215.13
2018-06-02T03:27:27.385Z,282.87
2018-06-02T03:29:56.552Z,113.33
2018-06-02T03:32:25.696Z,165.60
2018-06-02T03:34:54.859Z,121.17
2018-06-02T03:37:24.012Z,307.13
2018-06-02T03:39:53.188Z,154.73
2018-06-02T03:42:22.313Z,120.10
2018-06-02T03:44:51.462Z,105.60
2018-06-02T03:47:20.611Z,147.13
2018-06-02T03:49:49.751Z,112.13
2018-06-02T03:52:18.906Z,135.43
2018-06-02T03:54:48.053Z,97.53
2018-06-02T03:57:17.241Z,116.93
2018-06-02T03:59:46.416Z,118.73
2018-06-02T04:02:15.572Z,101.93
2018-06-02T04:04:44.685Z,95.10
2018-06-02T04:07:13.868Z,116.27
2018-06-02T04:09:43.001Z,110.60
2018-06-02T04:12:12.140Z,87.43
2018-06-02T04:14:41.320Z,110.93
2018-06-02T04:17:10.456Z,103.60
2018-06-02T04:19:39.592Z,92.30
2018-06-02T04:22:08.739Z,93.60
2018-06-02T04:24:37.883Z,88.90
2018-06-02T04:27:07.047Z,88.90
2018-06-02T04:29:36.168Z,90.93
2018-06-02T04:32:05.299Z,87.83
2018-06-02T04:34:34.445Z,95.50
2018-06-02T04:37:03.595Z,84.50
2018-06-02T04:39:32.733Z,82.10
2018-06-02T04:42:01.872Z,97.10
2018-06-02T04:44:31.015Z,86.77
2018-06-02T04:47:00.152Z,93.53
2018-06-02T04:49:29.333Z,90.03
2018-06-02T04:51:58.499Z,83.70
2018-06-02T04:54:27.647Z,91.77
2018-06-02T04:56:56.847Z,90.30
2018-06-02T04:59:25.968Z,82.57
2018-06-02T05:01:55.148Z,80.50
2018-06-02T05:04:24.293Z,81.57
2018-06-02T05:06:53.439Z,81.23
2018-06-02T05:09:22.947Z,82.50
2018-06-02T05:11:52.252Z,80.90
2018-06-02T05:14:21.399Z,80.90
2018-06-02T05:16:50.547Z,78.70
2018-06-02T05:19:19.716Z,78.20
2018-06-02T05:21:48.899Z,82.03
2018-06-02T05:24:18.084Z,79.37
2018-06-02T05:26:47.248Z,79.60
2018-06-02T05:29:16.459Z,86.47
2018-06-02T05:31:45.575Z,87.30
2018-06-02T05:34:14.740Z,81.33
2018-06-02T05:36:43.868Z,79.43
2018-06-02T05:39:13.048Z,79.50
2018-06-02T05:41:42.167Z,80.07
2018-06-02T05:44:11.332Z,82.53
2018-06-02T05:46:40.488Z,83.00
2018-06-02T05:49:09.668Z,84.70
2018-06-02T05:51:38.812Z,85.40
2018-06-02T05:54:07.967Z,84.37
2018-06-02T05:56:37.175Z,85.73
2018-06-02T05:59:06.320Z,82.10
2018-06-02T06:01:35.457Z,81.53
2018-06-02T06:04:04.632Z,81.30
2018-06-02T06:06:33.772Z,83.70
2018-06-02T06:09:02.892Z,80.47
2018-06-02T06:11:32.074Z,82.47
2018-06-02T06:14:01.218Z,84.60
2018-06-02T06:16:30.344Z,86.27
2018-06-02T06:18:59.516Z,80.70
2018-06-02T06:21:28.645Z,80.10
2018-06-02T06:23:57.779Z,84.43
2018-06-02T06:26:26.919Z,83.30
2018-06-02T06:28:56.052Z,81.00
2018-06-02T06:31:25.215Z,82.13
2018-06-02T06:33:54.329Z,85.37
2018-06-02T06:36:23.512Z,80.10
2018-06-02T06:38:52.621Z,80.73
2018-06-02T06:41:21.774Z,81.03
2018-06-02T06:43:50.952Z,80.70
2018-06-02T06:46:20.096Z,79.30
2018-06-02T06:48:49.241Z,80.60
2018-06-02T06:51:18.415Z,83.23
2018-06-02T06:53:47.599Z,82.10
2018-06-02T06:56:16.770Z,80.60
2018-06-02T06:58:45.943Z,79.60
2018-06-02T07:01:15.074Z,80.17
2018-06-02T07:03:44.261Z,78.37
2018-06-02T07:06:13.372Z,78.77
2018-06-02T07:08:42.516Z,81.83
2018-06-02T07:11:11.682Z,79.80
2018-06-02T07:13:41.223Z,78.17
2018-06-02T07:16:10.360Z,77.10
2018-06-02T07:18:39.472Z,78.57
2018-06-02T07:21:08.644Z,79.80
2018-06-02T07:23:37.776Z,79.40
2018-06-02T07:26:06.929Z,77.50
2018-06-02T07:28:36.071Z,76.93
2018-06-02T07:31:05.250Z,81.10
2018-06-02T07:33:34.379Z,78.10
2018-06-02T07:36:03.567Z,78.60
2018-06-02T07:38:32.713Z,79.50
2018-06-02T07:41:01.826Z,79.33
2018-06-02T07:43:30.979Z,76.90
2018-06-02T07:46:00.121Z,77.60
2018-06-02T07:48:29.268Z,78.10
2018-06-02T07:50:58.805Z,79.97
2018-06-02T07:53:28.002Z,77.60
2018-06-02T07:55:57.142Z,77.10
2018-06-02T07:58:26.290Z,78.07
2018-06-02T08:00:55.508Z,79.57
2018-06-02T08:03:24.638Z,77.70
2018-06-02T08:05:53.772Z,78.27
2018-06-02T08:08:22.922Z,76.17
2018-06-02T08:10:52.094Z,77.73
2018-06-02T08:13:21.279Z,78.00
2018-06-02T08:15:50.475Z,76.40
2018-06-02T08:18:19.626Z,80.97
2018-06-02T08:20:48.752Z,78.00
2018-06-02T08:23:17.945Z,78.50
2018-06-02T08:25:47.067Z,78.80
2018-06-02T08:28:16.279Z,77.77
2018-06-02T08:30:45.395Z,77.97
2018-06-02T08:33:14.539Z,76.10
2018-06-02T08:35:43.680Z,78.20
2018-06-02T08:38:12.803Z,75.90
2018-06-02T08:40:41.949Z,76.50
2018-06-02T08:43:11.065Z,77.93
2018-06-02T08:45:40.196Z,75.90
2018-06-02T08:48:09.331Z,74.97
2018-06-02T08:50:38.480Z,75.47
2018-06-02T08:53:07.656Z,76.47
2018-06-02T08:55:36.792Z,77.77
2018-06-02T08:58:05.925Z,77.40
2018-06-02T09:00:35.051Z,76.37
2018-06-02T09:03:04.161Z,77.37
2018-06-02T09:05:33.332Z,77.13
2018-06-02T09:08:02.538Z,78.97
2018-06-02T09:10:32.716Z,76.23
2018-06-02T09:13:01.881Z,76.30
2018-06-02T09:15:31.052Z,77.17
2018-06-02T09:18:00.214Z,80.80
2018-06-02T09:20:29.356Z,76.20
2018-06-02T09:22:58.464Z,76.17
2018-06-02T09:25:27.650Z,75.10
2018-06-02T09:27:56.864Z,76.77
2018-06-02T09:30:25.975Z,75.67
2018-06-02T09:32:55.131Z,75.47
2018-06-02T09:35:24.240Z,76.07
2018-06-02T09:37:53.352Z,75.70
2018-06-02T09:40:22.520Z,77.07
2018-06-02T09:42:51.640Z,77.30
2018-06-02T09:45:20.790Z,75.67
2018-06-02T09:47:49.981Z,77.07
2018-06-02T09:50:19.120Z,76.23
2018-06-02T09:52:48.259Z,79.70
2018-06-02T09:55:17.819Z,77.43
2018-06-02T09:57:46.935Z,75.30
2018-06-02T10:00:16.045Z,75.47
2018-06-02T10:02:45.357Z,76.37
2018-06-02T10:05:14.500Z,76.80
2018-06-02T10:07:43.643Z,77.50
2018-06-02T10:10:12.807Z,78.10
2018-06-02T10:12:41.948Z,78.27
2018-06-02T10:15:11.065Z,78.50
2018-06-02T10:17:40.241Z,76.93
2018-06-02T10:20:09.387Z,79.10
2018-06-02T10:22:38.534Z,80.13
2018-06-02T10:25:07.716Z,77.20
2018-06-02T10:27:36.913Z,79.57
2018-06-02T10:30:06.055Z,77.97
2018-06-02T10:32:35.208Z,76.60
2018-06-02T10:35:04.359Z,79.57
2018-06-02T10:37:33.517Z,79.10
2018-06-02T10:40:02.709Z,78.60
2018-06-02T10:42:31.825Z,77.40
2018-06-02T10:45:00.944Z,76.70
2018-06-02T10:47:30.111Z,77.20
2018-06-02T10:49:59.229Z,77.57
2018-06-02T10:52:28.382Z,75.80
2018-06-02T10:54:57.531Z,76.87
2018-06-02T10:57:26.686Z,77.67
2018-06-02T10:59:55.824Z,77.20
2018-06-02T11:02:24.959Z,76.60
2018-06-02T11:04:54.076Z,80.20
2018-06-02T11:07:23.265Z,75.30
2018-06-02T11:09:52.380Z,77.00
2018-06-02T11:12:21.500Z,80.77
2018-06-02T11:14:50.764Z,76.10
2018-06-02T11:17:19.871Z,79.17
2018-06-02T11:19:49.061Z,79.30
2018-06-02T11:22:18.208Z,75.43
2018-06-02T11:24:47.324Z,75.77
2018-06-02T11:27:16.482Z,77.07
2018-06-02T11:29:45.608Z,76.63
2018-06-02T11:32:14.928Z,74.73
2018-06-02T11:34:44.093Z,76.17
2018-06-02T11:37:13.239Z,74.90
2018-06-02T11:39:42.414Z,75.77
2018-06-02T11:42:11.594Z,79.23
2018-06-02T11:44:40.797Z,74.60
2018-06-02T11:47:09.900Z,76.53
2018-06-02T11:49:39.044Z,75.40
2018-06-02T11:52:08.448Z,74.90
2018-06-02T11:54:37.580Z,75.90
2018-06-02T11:57:06.725Z,75.97
2018-06-02T11:59:35.900Z,75.07
2018-06-02T12:02:05.061Z,74.80
2018-06-02T12:04:34.178Z,78.50
2018-06-02T12:07:03.321Z,75.07
2018-06-02T12:09:32.477Z,75.47
2018-06-02T12:12:01.648Z,74.77
2018-06-02T12:14:30.781Z,76.87
2018-06-02T12:16:59.917Z,74.33
2018-06-02T12:19:29.091Z,75.80
2018-06-02T12:21:58.211Z,74.60
2018-06-02T12:24:27.358Z,74.90
2018-06-02T12:26:56.665Z,75.67
2018-06-02T12:29:25.789Z,75.07
2018-06-02T12:31:54.999Z,75.70
2018-06-02T12:34:24.163Z,75.27
2018-06-02T12:36:53.287Z,74.20
2018-06-02T12:39:22.480Z,76.20
2018-06-02T12:41:51.624Z,75.30
2018-06-02T12:44:20.784Z,80.77
2018-06-02T12:46:49.900Z,74.57
2018-06-02T12:49:19.087Z,75.77
2018-06-02T12:51:48.224Z,75.17
2018-06-02T12:54:17.364Z,73.77
2018-06-02T12:56:46.499Z,76.97
2018-06-02T12:59:15.693Z,75.07
2018-06-02T13:01:44.813Z,79.13
2018-06-02T13:04:14.109Z,75.37
2018-06-02T13:06:43.243Z,75.10
2018-06-02T13:09:12.419Z,76.90
2018-06-02T13:11:41.579Z,75.30
2018-06-02T13:14:10.693Z,75.00
2018-06-02T13:16:39.813Z,75.27
2018-06-02T13:19:09.947Z,75.50
2018-06-02T13:21:39.089Z,76.30
2018-06-02T13:24:08.225Z,74.83
2018-06-02T13:26:37.450Z,74.87
2018-06-02T13:29:06.777Z,74.43
2018-06-02T13:31:35.895Z,76.17
2018-06-02T13:34:05.090Z,81.50
2018-06-02T13:36:34.208Z,75.30
2018-06-02T13:39:03.335Z,77.27
2018-06-02T13:41:32.494Z,74.90
2018-06-02T13:44:01.655Z,75.13
2018-06-02T13:46:30.791Z,74.87
2018-06-02T13:48:59.912Z,78.27
2018-06-02T13:51:29.117Z,76.60
2018-06-02T13:53:58.267Z,77.23
2018-06-02T13:56:27.393Z,75.20
2018-06-02T13:58:56.592Z,75.87
2018-06-02T14:01:25.724Z,75.07
2018-06-02T14:03:54.870Z,74.20
2018-06-02T14:06:24.031Z,77.50
2018-06-02T14:08:53.173Z,77.27
2018-06-02T14:11:22.322Z,73.97
2018-06-02T14:13:51.493Z,73.67
2018-06-02T14:16:20.628Z,76.00
2018-06-02T14:18:49.809Z,75.47
2018-06-02T14:21:18.939Z,73.90
2018-06-02T14:23:48.130Z,74.17
2018-06-02T14:26:17.256Z,75.80
2018-06-02T14:28:46.387Z,74.00
2018-06-02T14:31:15.561Z,76.37
2018-06-02T14:33:44.707Z,75.67
2018-06-02T14:36:13.841Z,75.30
2018-06-02T14:38:42.987Z,78.07
2018-06-02T14:41:12.120Z,74.97
2018-06-02T14:43:41.287Z,74.57
2018-06-02T14:46:10.489Z,75.80
2018-06-02T14:48:39.640Z,79.30
2018-06-02T14:51:08.759Z,75.77
2018-06-02T14:53:38.006Z,75.70
2018-06-02T14:56:07.160Z,76.57
2018-06-02T14:58:36.276Z,74.97
2018-06-02T15:01:05.417Z,74.33
2018-06-02T15:03:34.536Z,75.53
2018-06-02T15:06:03.646Z,75.60
2018-06-02T15:08:32.797Z,75.83
2018-06-02T15:11:01.935Z,74.03
2018-06-02T15:13:31.093Z,75.30
2018-06-02T15:16:00.264Z,76.03
2018-06-02T15:18:29.426Z,74.10
2018-06-02T15:20:58.541Z,74.47
2018-06-02T15:23:27.703Z,72.67
2018-06-02T15:25:56.829Z,76.00
2018-06-02T15:28:25.973Z,74.60
2018-06-02T15:30:55.136Z,74.90
2018-06-02T15:33:24.285Z,77.57
2018-06-02T15:35:53.421Z,75.77
2018-06-02T15:38:22.565Z,77.07
2018-06-02T15:40:51.745Z,74.97
2018-06-02T15:43:20.890Z,74.93
2018-06-02T15:45:50.011Z,74.80
2018-06-02T15:48:19.214Z,75.40
2018-06-02T15:50:48.275Z,75.20
2018-06-02T15:53:17.399Z,75.80
2018-06-02T15:55:46.625Z,75.57
2018-06-02T15:58:15.777Z,77.10
2018-06-02T16:00:44.897Z,76.00
2018-06-02T16:03:14.055Z,75.70
2018-06-02T16:05:43.174Z,78.07
2018-06-02T16:08:13.216Z,77.17
2018-06-02T16:10:42.389Z,78.77
2018-06-02T16:13:11.501Z,78.07
2018-06-02T16:15:40.640Z,75.90
2018-06-02T16:18:09.804Z,76.87
2018-06-02T16:20:38.948Z,75.50
2018-06-02T16:23:08.157Z,78.80
2018-06-02T16:25:37.275Z,75.63
2018-06-02T16:28:07.014Z,75.30
2018-06-02T16:30:36.477Z,78.10
2018-06-02T16:33:05.624Z,76.67
2018-06-02T16:35:34.792Z,74.20
2018-06-02T16:38:03.939Z,73.90
2018-06-02T16:40:33.061Z,75.07
2018-06-02T16:43:02.198Z,75.77
2018-06-02T16:45:31.309Z,75.93
2018-06-02T16:48:00.521Z,76.20
2018-06-02T16:50:29.689Z,77.33
2018-06-02T16:52:58.812Z,76.77
2018-06-02T16:55:27.952Z,76.70
2018-06-02T16:57:57.101Z,76.33
2018-06-02T17:00:26.241Z,75.83
2018-06-02T17:02:55.395Z,76.70
2018-06-02T17:05:24.565Z,75.43
2018-06-02T17:07:53.721Z,75.97
2018-06-02T17:10:22.884Z,77.40
2018-06-02T17:12:52.096Z,79.70
2018-06-02T17:15:21.255Z,76.47
2018-06-02T17:17:50.393Z,79.07
2018-06-02T17:20:19.568Z,77.20
2018-06-02T17:22:48.743Z,76.73
2018-06-02T17:25:17.896Z,75.90
2018-06-02T17:27:47.138Z,76.60
2018-06-02T17:30:16.247Z,77.10
2018-06-02T17:32:45.394Z,76.50
2018-06-02T17:35:14.540Z,78.23
2018-06-02T17:37:43.691Z,77.50
2018-06-02T17:40:12.829Z,76.67
2018-06-02T17:42:42.012Z,76.77
2018-06-02T17:45:11.663Z,77.20
2018-06-02T17:47:40.858Z,77.53
2018-06-02T17:50:10.023Z,78.07
2018-06-02T17:52:39.138Z,77.47
2018-06-02T17:55:08.312Z,78.13
2018-06-02T17:57:37.446Z,76.57
2018-06-02T18:00:06.601Z,78.60
2018-06-02T18:02:35.768Z,76.67
2018-06-02T18:05:04.920Z,76.50
2018-06-02T18:07:34.129Z,76.57
2018-06-02T18:10:03.351Z,75.50
2018-06-02T18:12:32.467Z,77.27
2018-06-02T18:15:01.581Z,77.20
2018-06-02T18:17:30.748Z,77.17
2018-06-02T18:19:59.899Z,77.07
2018-06-02T18:22:29.064Z,78.60
2018-06-02T18:24:58.209Z,78.70
2018-06-02T18:27:27.336Z,76.97
2018-06-02T18:29:56.448Z,77.60
2018-06-02T18:32:25.605Z,78.00
2018-06-02T18:34:54.741Z,79.30
2018-06-02T18:37:23.988Z,77.67
2018-06-02T18:39:53.126Z,78.40
2018-06-02T18:42:22.260Z,81.60
2018-06-02T18:44:51.395Z,78.53
2018-06-02T18:47:20.539Z,79.40
2018-06-02T18:49:49.652Z,78.57
2018-06-02T18:52:18.829Z,81.30
2018-06-02T18:54:47.982Z,78.53
2018-06-02T18:57:17.111Z,79.20
2018-06-02T18:59:46.244Z,79.67
2018-06-02T19:02:15.392Z,78.33
2018-06-02T19:04:44.565Z,78.47
2018-06-02T19:07:13.710Z,81.43
2018-06-02T19:09:42.856Z,79.83
2018-06-02T19:12:12.037Z,81.37
2018-06-02T19:14:41.177Z,81.67
2018-06-02T19:17:10.308Z,85.03
2018-06-02T19:19:39.468Z,85.60
2018-06-02T19:22:08.589Z,82.63
2018-06-02T19:24:37.740Z,82.17
2018-06-02T19:27:06.901Z,85.20
2018-06-02T19:29:36.073Z,82.67
2018-06-02T19:32:05.204Z,82.33
2018-06-02T19:34:34.381Z,87.87
2018-06-02T19:37:03.545Z,83.67
2018-06-02T19:39:32.679Z,80.50
2018-06-02T19:42:01.816Z,80.40
2018-06-02T19:44:30.997Z,82.77
2018-06-02T19:47:00.110Z,79.40
2018-06-02T19:49:29.257Z,81.67
2018-06-02T19:51:58.399Z,79.97
2018-06-02T19:54:27.524Z,82.20
2018-06-02T19:56:56.671Z,79.57
2018-06-02T19:59:25.817Z,79.30
2018-06-02T20:01:54.968Z,79.07
2018-06-02T20:04:24.102Z,79.73
2018-06-02T20:06:53.272Z,82.43
2018-06-02T20:09:22.389Z,79.50
2018-06-02T20:11:51.552Z,85.10
2018-06-02T20:14:20.729Z,85.13
2018-06-02T20:16:49.856Z,90.07
2018-06-02T20:19:19.983Z,88.37
2018-06-02T20:21:49.122Z,93.80
2018-06-02T20:24:18.243Z,83.00
2018-06-02T20:26:47.380Z,86.20
2018-06-02T20:29:16.561Z,88.63
2018-06-02T20:31:45.706Z,85.33
2018-06-02T20:34:14.855Z,81.50
2018-06-02T20:36:44.013Z,92.17
2018-06-02T20:39:13.146Z,82.80
2018-06-02T20:41:42.275Z,90.60
2018-06-02T20:44:11.444Z,91.33
2018-06-02T20:46:40.555Z,97.37
2018-06-02T20:49:09.696Z,88.70
2018-06-02T20:51:38.877Z,97.83
2018-06-02T20:54:08.033Z,101.27
2018-06-02T20:56:37.159Z,98.23
2018-06-02T20:59:06.293Z,95.47
2018-06-02T21:01:35.431Z,94.77
2018-06-02T21:04:04.595Z,93.37
2018-06-02T21:06:33.803Z,93.87
2018-06-02T21:09:02.948Z,92.23
2018-06-02T21:11:32.094Z,89.97
2018-06-02T21:14:01.269Z,84.33
2018-06-02T21:16:30.407Z,84.50
2018-06-02T21:18:59.552Z,82.03
2018-06-02T21:21:28.730Z,84.87
2018-06-02T21:23:57.871Z,84.47
2018-06-02T21:26:27.055Z,92.93
2018-06-02T21:28:56.195Z,90.50
2018-06-02T21:31:25.313Z,84.00
2018-06-02T21:33:54.504Z,82.50
2018-06-02T21:36:23.650Z,80.70
2018-06-02T21:38:52.817Z,85.67
2018-06-02T21:41:21.933Z,81.10
2018-06-02T21:43:51.059Z,80.47
2018-06-02T21:46:20.208Z,83.10
2018-06-02T21:48:49.349Z,81.53
2018-06-02T21:51:18.485Z,83.83
2018-06-02T21:53:47.628Z,82.20
2018-06-02T21:56:16.768Z,85.80
2018-06-02T21:58:45.921Z,91.30
2018-06-02T22:01:15.066Z,85.07
2018-06-02T22:03:44.187Z,88.07
2018-06-02T22:06:13.343Z,83.70
2018-06-02T22:08:42.486Z,81.37
2018-06-02T22:11:11.645Z,84.77
2018-06-02T22:13:40.963Z,87.87
2018-06-02T22:16:10.102Z,80.97
2018-06-02T22:18:39.232Z,81.50
2018-06-02T22:21:08.372Z,82.50
2018-06-02T22:23:37.548Z,81.47
2018-06-02T22:26:06.673Z,81.10
2018-06-02T22:28:35.791Z,82.90
2018-06-02T22:31:04.952Z,81.37
2018-06-02T22:33:34.065Z,84.87
2018-06-02T22:36:03.188Z,83.77
2018-06-02T22:38:32.366Z,83.67
2018-06-02T22:41:01.516Z,82.47
2018-06-02T22:43:30.637Z,83.57
2018-06-02T22:45:59.808Z,83.43
2018-06-02T22:48:28.976Z,81.20
2018-06-02T22:50:58.102Z,83.23
2018-06-02T22:53:27.224Z,81.30
2018-06-02T22:55:56.390Z,81.43
2018-06-02T22:58:25.528Z,85.90
2018-06-02T23:00:54.669Z,83.30
2018-06-02T23:03:23.838Z,81.70
2018-06-02T23:05:52.996Z,82.90
2018-06-02T23:08:22.120Z,82.90
2018-06-02T23:10:51.256Z,81.30
2018-06-02T23:13:21.061Z,82.10
2018-06-02T23:15:50.187Z,81.27
2018-06-02T23:18:19.344Z,89.50
2018-06-02T23:20:48.504Z,82.40
2018-06-02T23:23:17.641Z,80.20
2018-06-02T23:25:46.787Z,84.00
2018-06-02T23:28:15.949Z,84.67
2018-06-02T23:30:45.133Z,86.07
2018-06-02T23:33:14.323Z,83.17
2018-06-02T23:35:43.435Z,81.93
2018-06-02T23:38:12.555Z,82.00
2018-06-02T23:40:41.777Z,85.60
2018-06-02T23:43:10.924Z,83.40
2018-06-02T23:45:40.033Z,83.07
2018-06-02T23:48:09.204Z,82.07
2018-06-02T23:50:38.345Z,82.30
2018-06-02T23:53:07.475Z,81.37
2018-06-02T23:55:36.676Z,84.20
2018-06-02T23:58:05.797Z,81.97
